Aviation Digital Data Service (ADDS)

Output produced by METARs form (0200 UTC 21 April 2014)
found at http://aviationweather.gov/adds/metars/
 
KHYA 202321Z 2100/2124 14007KT P6SM SKC 
     FM211000 VRB03KT P6SM FEW200